< Typhoon 195404 1954 Season Typhoon 195406 >
Typhoon 195405 (GRACE)
General InformationTrack Information on Google Maps || Disaster Info.ResourceGoogle EarthGE AnimationAtom FeedGeoJSON
Detalied Best Track (Time Zone = UTC)
Year Month Day Hour Lat. Long. Pressure (hPa) Wind (kt) Class Image Chart
1954 8 12 00 23.0 135.4 990 0 9 -- Chart
1954 8 12 06 23.1 134.3 985 0 9 -- Chart
1954 8 12 12 23.3 133.4 985 0 9 -- Chart
1954 8 12 18 23.5 132.5 980 0 9 -- Chart
1954 8 13 00 23.7 131.6 970 0 9 -- Chart
1954 8 13 06 23.7 131.5 965 0 9 -- Chart
1954 8 13 12 23.8 130.7 960 0 9 -- Chart
1954 8 13 18 24.2 129.8 955 0 9 -- Chart
1954 8 14 00 24.5 129.0 955 0 9 -- Chart
1954 8 14 06 24.5 128.5 955 0 9 -- Chart
1954 8 14 12 24.9 128.3 950 0 9 -- Chart
1954 8 14 18 25.5 128.2 945 0 9 -- Chart
1954 8 15 00 25.7 128.0 940 0 9 -- Chart
1954 8 15 06 26.1 127.9 940 0 9 -- Chart
1954 8 15 12 26.7 127.7 940 0 9 -- Chart
1954 8 15 18 27.2 127.5 940 0 9 -- Chart
1954 8 16 00 27.7 127.4 940 0 9 -- Chart
1954 8 16 06 28.0 127.3 940 0 9 -- Chart
1954 8 16 12 28.6 127.5 940 0 9 -- Chart
1954 8 16 18 29.0 127.9 940 0 9 -- Chart
1954 8 17 00 29.4 128.2 940 0 9 -- Chart
1954 8 17 06 30.3 128.7 940 0 9 -- Chart
1954 8 17 12 31.2 129.7 940 0 9 -- Chart
1954 8 17 18 31.9 130.3 940 0 9 -- Chart
1954 8 18 00 32.6 131.2 960 0 9 -- Chart
1954 8 18 06 33.1 132.4 970 0 9 -- Chart
1954 8 18 12 33.8 134.2 970 0 9 -- Chart
1954 8 18 18 34.7 135.0 980 0 9 -- Chart
1954 8 19 00 35.4 136.0 985 0 9 -- Chart
1954 8 19 06 35.3 137.8 989 0 9 -- Chart
1954 8 19 12 35.4 139.4 991 0 9 -- Chart
1954 8 19 18 36.6 140.8 994 0 9 -- Chart
1954 8 20 00 38.0 142.2 998 0 9 -- Chart
1954 8 20 06 38.6 144.2 1000 0 9 -- Chart
1954 8 20 12 39.2 146.3 1002 0 6 -- Chart
1954 8 20 18 39.8 149.0 1004 0 6 -- Chart
1954 8 21 00 40.0 152.0 1006 0 6 -- Chart
1954 8 21 06 40.3 155.7 1006 0 6 -- Chart
1954 8 21 12 40.3 158.6 1008 0 6 -- Chart
1954 8 21 18 40.3 161.4 1006 0 6 -- Chart
1954 8 22 00 40.1 164.0 1005 0 6 -- Chart
1954 8 22 06 40.1 167.0 1002 0 6 -- Chart
1954 8 22 12 40.4 170.7 1002 0 6 -- Chart
1954 8 22 18 40.2 174.8 998 0 6 -- Chart
1954 8 23 00 42.0 178.9 994 0 6 -- Chart
1954 8 23 06 44.0 182.8 994 0 6 -- Chart
Japan Meteorological Agency Best Track Data | Correction Date : 1990-10-17
< Typhoon 195404 1954 Season Typhoon 195406 >

Help